createdAt,value
2018-12-03T08:31:14.462Z,327.14
2018-12-03T08:32:45.068Z,310.28
2018-12-03T08:33:45.198Z,307.67
2018-12-03T08:34:45.019Z,306.66
2018-12-03T08:35:45.003Z,305.46
2018-12-03T08:36:44.990Z,303.98
2018-12-03T08:37:44.979Z,304.25
2018-12-03T08:38:44.978Z,303.52
2018-12-03T08:39:44.966Z,303.89
2018-12-03T08:40:44.952Z,303.39
2018-12-03T08:41:44.936Z,303.31
2018-12-03T08:42:44.950Z,302.54
2018-12-03T08:43:45.434Z,302.61
2018-12-03T08:44:44.908Z,301.96
2018-12-03T08:45:44.906Z,302.80
2018-12-03T08:46:44.879Z,302.19
2018-12-03T08:47:44.883Z,302.00
2018-12-03T08:48:44.862Z,301.79
2018-12-03T08:49:44.939Z,301.88
2018-12-03T08:50:44.839Z,301.99
2018-12-03T08:51:44.848Z,301.91
2018-12-03T08:52:44.851Z,301.37
2018-12-03T08:53:44.865Z,301.48
2018-12-03T08:54:44.813Z,302.02
2018-12-03T08:55:44.797Z,301.85
2018-12-03T08:56:44.779Z,301.48
2018-12-03T08:57:44.770Z,301.68
2018-12-03T08:58:44.763Z,301.55
2018-12-03T08:59:44.747Z,301.30
2018-12-03T09:00:44.807Z,301.56
2018-12-03T09:01:44.725Z,301.83
2018-12-03T09:02:44.716Z,301.60
2018-12-03T09:03:44.714Z,301.16
2018-12-03T09:04:44.699Z,300.99
2018-12-03T09:05:44.678Z,301.16
2018-12-03T09:06:44.674Z,301.12
2018-12-03T09:07:44.665Z,301.58
2018-12-03T09:08:44.659Z,301.50
2018-12-03T09:09:44.657Z,301.58
2018-12-03T09:10:44.630Z,301.01
2018-12-03T09:11:44.616Z,301.28
2018-12-03T09:12:44.645Z,301.38
2018-12-03T09:13:44.608Z,300.78
2018-12-03T09:14:44.694Z,300.46
2018-12-03T09:15:44.578Z,301.05
2018-12-03T09:16:44.591Z,300.89
2018-12-03T09:17:44.572Z,301.00
2018-12-03T09:18:44.562Z,301.14
2018-12-03T09:19:44.543Z,300.88
2018-12-03T09:20:44.524Z,300.06
2018-12-03T09:21:44.511Z,300.10
2018-12-03T09:22:44.513Z,300.60
2018-12-03T09:23:44.492Z,301.05
2018-12-03T09:24:44.499Z,300.87
2018-12-03T09:25:44.467Z,300.73
2018-12-03T09:26:44.480Z,300.83
2018-12-03T09:27:44.490Z,299.88
2018-12-03T09:28:44.444Z,300.60
2018-12-03T09:29:44.428Z,300.74
2018-12-03T09:30:44.415Z,300.39
2018-12-03T09:31:44.411Z,300.42
2018-12-03T09:32:44.397Z,300.89
2018-12-03T09:33:44.414Z,300.49
2018-12-03T09:34:44.380Z,300.26
2018-12-03T09:35:44.371Z,299.77
2018-12-03T09:36:44.358Z,299.94
2018-12-03T09:37:44.350Z,300.35
2018-12-03T09:38:44.334Z,299.96
2018-12-03T09:39:44.318Z,300.34
2018-12-03T09:40:44.316Z,300.23
2018-12-03T09:41:44.322Z,300.49
2018-12-03T09:42:44.298Z,300.07
2018-12-03T09:43:44.284Z,300.32
2018-12-03T09:44:44.298Z,300.60
2018-12-03T09:45:44.340Z,299.32
2018-12-03T09:46:44.249Z,299.79
2018-12-03T09:47:44.234Z,300.19
2018-12-03T09:48:44.225Z,299.14
2018-12-03T09:49:44.223Z,299.69
2018-12-03T09:50:44.210Z,299.99
2018-12-03T09:51:44.231Z,299.80
2018-12-03T09:52:44.196Z,299.38
2018-12-03T09:53:44.200Z,299.69
2018-12-03T09:54:44.167Z,299.19
2018-12-03T09:55:44.157Z,299.87
2018-12-03T09:56:44.140Z,300.35
2018-12-03T09:57:44.129Z,299.73
2018-12-03T09:58:44.121Z,299.47
2018-12-03T09:59:44.133Z,298.94
2018-12-03T10:00:44.098Z,299.67
2018-12-03T10:01:44.089Z,299.23
2018-12-03T10:02:44.090Z,299.41
2018-12-03T10:03:44.062Z,298.69
2018-12-03T10:04:44.060Z,298.66
2018-12-03T10:05:44.052Z,299.44
2018-12-03T10:06:44.063Z,299.37
2018-12-03T10:07:44.061Z,299.45
2018-12-03T10:08:44.129Z,299.10
2018-12-03T10:09:44.009Z,299.87
2018-12-03T10:10:43.988Z,298.89
2018-12-03T10:11:43.991Z,298.83
2018-12-03T10:12:43.972Z,299.50
2018-12-03T10:13:43.963Z,299.04
2018-12-03T10:14:43.955Z,299.94
2018-12-03T10:15:43.941Z,299.18
2018-12-03T10:16:43.924Z,298.99
2018-12-03T10:17:43.918Z,298.60
2018-12-03T10:18:43.911Z,298.86
2018-12-03T10:19:43.895Z,298.80
2018-12-03T10:20:43.892Z,299.71
2018-12-03T10:21:43.877Z,299.01
2018-12-03T10:22:43.860Z,298.69
2018-12-03T10:23:43.865Z,298.52
2018-12-03T10:24:43.844Z,298.17
2018-12-03T10:25:43.843Z,298.65
2018-12-03T10:26:43.824Z,299.04
2018-12-03T10:27:43.810Z,297.78
2018-12-03T10:28:43.803Z,298.13
2018-12-03T10:29:43.795Z,297.99
2018-12-03T10:30:43.785Z,298.19
2018-12-03T10:31:43.771Z,298.46
2018-12-03T10:32:43.771Z,299.15
2018-12-03T10:33:43.750Z,298.84
2018-12-03T10:34:43.746Z,298.28
2018-12-03T10:35:43.729Z,298.35
2018-12-03T10:36:43.713Z,298.93
2018-12-03T10:37:43.706Z,298.73
2018-12-03T10:38:43.771Z,298.83
2018-12-03T10:39:43.686Z,298.90
2018-12-03T10:40:43.721Z,298.68
2018-12-03T10:41:43.673Z,299.10
2018-12-03T10:42:43.655Z,299.06
2018-12-03T10:43:43.643Z,298.21
2018-12-03T10:44:43.637Z,298.09
2018-12-03T10:45:43.624Z,298.45
2018-12-03T10:46:43.620Z,298.51
2018-12-03T10:47:43.601Z,298.50
2018-12-03T10:48:43.595Z,298.90
2018-12-03T10:49:43.584Z,299.33
2018-12-03T10:50:43.581Z,299.25
2018-12-03T10:51:43.570Z,298.66
2018-12-03T10:52:43.548Z,298.81
2018-12-03T10:53:43.538Z,298.75
2018-12-03T10:54:43.534Z,298.38
2018-12-03T10:55:43.512Z,298.71
2018-12-03T10:56:43.548Z,298.18
2018-12-03T10:57:43.498Z,299.14
2018-12-03T10:58:43.480Z,298.80
2018-12-03T10:59:43.466Z,298.59
2018-12-03T11:00:43.467Z,298.06
2018-12-03T11:01:43.447Z,298.80
2018-12-03T11:02:43.445Z,298.40
2018-12-03T11:03:43.430Z,298.69
2018-12-03T11:04:43.418Z,298.92
2018-12-03T11:05:43.414Z,299.22
2018-12-03T11:06:43.402Z,298.56
2018-12-03T11:07:43.406Z,299.00
2018-12-03T11:08:43.386Z,298.30
2018-12-03T11:09:43.363Z,298.75
2018-12-03T11:10:43.370Z,299.25
2018-12-03T11:11:43.396Z,298.25
2018-12-03T11:12:43.330Z,298.62
2018-12-03T11:13:43.332Z,298.50
2018-12-03T11:15:16.511Z,293.48
2018-12-03T11:16:16.464Z,297.75
2018-12-03T11:17:48.300Z,296.84
2018-12-03T11:18:48.014Z,298.12
2018-12-03T11:19:48.076Z,298.96
2018-12-03T11:20:48.000Z,298.25
2018-12-03T11:21:48.127Z,298.38
2018-12-03T11:22:47.973Z,298.30
2018-12-03T11:23:48.111Z,298.49
2018-12-03T11:24:47.956Z,298.59
2018-12-03T11:25:48.053Z,298.67
2018-12-03T11:26:47.944Z,298.41
2018-12-03T11:27:48.069Z,298.54
2018-12-03T11:28:47.920Z,298.85
2018-12-03T11:29:48.089Z,298.69
2018-12-03T11:30:47.899Z,298.35
2018-12-03T11:31:48.015Z,298.52
2018-12-03T11:32:47.866Z,298.75
2018-12-03T11:33:48.032Z,298.23
2018-12-03T11:34:47.843Z,298.17
2018-12-03T11:35:48.059Z,298.05
2018-12-03T11:36:47.881Z,298.22
2018-12-03T11:37:47.985Z,297.63
2018-12-03T11:38:47.795Z,298.50
2018-12-03T11:39:48.873Z,298.01
2018-12-03T11:40:47.781Z,297.82
2018-12-03T11:41:47.815Z,297.99
2018-12-03T11:42:47.755Z,297.67
2018-12-03T11:43:47.851Z,297.47
2018-12-03T11:44:47.754Z,297.72
2018-12-03T11:45:47.863Z,298.67
2018-12-03T11:46:47.790Z,298.03
2018-12-03T11:47:47.791Z,298.04
2018-12-03T11:48:47.752Z,297.95
2018-12-03T11:49:47.802Z,297.37
2018-12-03T11:50:47.664Z,298.11
2018-12-03T11:51:48.769Z,298.15
2018-12-03T11:52:48.481Z,297.75
2018-12-03T11:53:47.752Z,298.17
2018-12-03T11:54:47.645Z,297.94
2018-12-03T11:55:47.775Z,298.36
2018-12-03T11:56:47.628Z,298.16
2018-12-03T11:57:47.800Z,298.36
2018-12-03T11:58:47.591Z,298.16
2018-12-03T11:59:47.590Z,297.62
2018-12-03T12:00:47.641Z,297.82
2018-12-03T12:01:47.562Z,298.66
2018-12-03T12:02:47.658Z,298.36
2018-12-03T12:03:47.542Z,298.74
2018-12-03T12:04:47.691Z,298.50
2018-12-03T12:05:47.522Z,298.86
2018-12-03T12:06:47.597Z,298.40
2018-12-03T12:07:47.505Z,298.33
2018-12-03T12:08:47.639Z,299.06
2018-12-03T12:09:47.486Z,298.15
2018-12-03T12:10:47.535Z,298.60
2018-12-03T12:11:47.505Z,298.09
2018-12-03T12:12:47.577Z,298.35
2018-12-03T12:13:47.471Z,298.34
2018-12-03T12:14:47.594Z,297.85
2018-12-03T12:15:47.407Z,297.58
2018-12-03T12:16:47.519Z,297.98
2018-12-03T12:17:47.406Z,298.01
2018-12-03T12:18:47.542Z,298.53
2018-12-03T12:19:48.045Z,298.71
2018-12-03T12:20:47.466Z,298.15
2018-12-03T12:21:47.360Z,298.55
2018-12-03T12:22:47.388Z,298.63
2018-12-03T12:23:47.328Z,298.19
2018-12-03T12:24:47.406Z,298.46
2018-12-03T12:25:47.338Z,298.92
2018-12-03T12:26:47.456Z,298.46
2018-12-03T12:27:47.285Z,298.37
2018-12-03T12:28:47.452Z,298.21
2018-12-03T12:29:47.337Z,298.43
2018-12-03T12:30:47.256Z,298.50
2018-12-03T12:31:47.385Z,298.02
2018-12-03T12:32:47.240Z,298.89
2018-12-03T12:33:47.427Z,298.01
2018-12-03T12:34:47.213Z,298.98
2018-12-03T12:35:47.525Z,298.05
2018-12-03T12:36:47.184Z,299.09
2018-12-03T12:37:47.376Z,298.23
2018-12-03T12:38:47.178Z,298.41
2018-12-03T12:39:47.165Z,298.58
2018-12-03T12:40:47.196Z,298.25
2018-12-03T12:41:47.133Z,298.63
2018-12-03T12:42:47.231Z,298.43
2018-12-03T12:43:47.147Z,298.46
2018-12-03T12:44:47.140Z,298.81
2018-12-03T12:45:47.198Z,298.34
2018-12-03T12:46:47.150Z,298.37
2018-12-03T12:47:47.185Z,298.78
2018-12-03T12:48:47.066Z,298.19
2018-12-03T12:49:47.196Z,298.39
2018-12-03T12:50:47.039Z,298.51
2018-12-03T12:51:51.631Z,298.53
2018-12-03T12:52:47.934Z,298.29
2018-12-03T12:53:47.138Z,298.75
2018-12-03T12:54:47.114Z,298.68
2018-12-03T12:55:47.194Z,298.66
2018-12-03T12:56:46.989Z,298.52
2018-12-03T12:57:46.976Z,297.91
2018-12-03T12:58:47.115Z,298.77
2018-12-03T12:59:46.961Z,298.86
2018-12-03T13:00:47.125Z,299.03
2018-12-03T13:01:46.940Z,297.97
2018-12-03T13:02:47.062Z,298.75
2018-12-03T13:03:46.895Z,298.57
2018-12-03T13:04:46.977Z,298.45
2018-12-03T13:05:46.898Z,298.21
2018-12-03T13:06:46.989Z,297.47
2018-12-03T13:07:46.855Z,298.05
2018-12-03T13:08:47.029Z,298.24
2018-12-03T13:09:46.832Z,298.77
2018-12-03T13:10:46.935Z,298.41
2018-12-03T13:11:46.815Z,297.95
2018-12-03T13:12:46.957Z,298.33
2018-12-03T13:13:46.791Z,298.21
2018-12-03T13:14:46.870Z,298.01
2018-12-03T13:15:46.776Z,298.67
2018-12-03T13:16:46.905Z,298.16
2018-12-03T13:17:46.778Z,298.19
2018-12-03T13:18:46.926Z,298.21
2018-12-03T13:19:46.728Z,298.62
2018-12-03T13:20:46.731Z,298.06
2018-12-03T13:21:46.860Z,298.28
2018-12-03T13:22:46.700Z,298.44
2018-12-03T13:23:46.781Z,298.90
2018-12-03T13:24:46.674Z,298.51
2018-12-03T13:25:46.811Z,298.89
2018-12-03T13:26:46.660Z,298.72
2018-12-03T13:27:46.731Z,297.92
2018-12-03T13:28:46.637Z,298.14
2018-12-03T13:29:46.743Z,298.15
2018-12-03T13:30:46.609Z,299.07
2018-12-03T13:31:46.761Z,298.76
2018-12-03T13:32:46.617Z,297.92
2018-12-03T13:33:46.689Z,298.29
2018-12-03T13:34:46.641Z,298.65
2018-12-03T13:35:46.714Z,298.73
2018-12-03T13:36:46.535Z,298.39
2018-12-03T13:37:46.742Z,298.27
2018-12-03T13:38:46.546Z,298.51
2018-12-03T13:39:46.520Z,298.30
2018-12-03T13:40:46.675Z,298.05
2018-12-03T13:41:46.498Z,298.91
2018-12-03T13:42:46.694Z,298.54
2018-12-03T13:43:46.489Z,297.97
2018-12-03T13:44:46.507Z,298.22
2018-12-03T13:45:46.459Z,298.00
2018-12-03T13:46:46.448Z,298.16
2018-12-03T13:47:46.544Z,298.20
2018-12-03T13:48:46.424Z,298.49
2018-12-03T13:49:46.591Z,298.70
2018-12-03T13:50:46.394Z,298.63
2018-12-03T13:51:46.473Z,297.98
2018-12-03T13:52:46.498Z,298.63
2018-12-03T13:53:46.410Z,298.80
2018-12-03T13:54:46.513Z,298.11
2018-12-03T13:55:46.347Z,298.78
2018-12-03T13:56:46.568Z,298.39
2018-12-03T13:57:46.343Z,297.72
2018-12-03T13:58:46.480Z,298.28
2018-12-03T13:59:46.299Z,298.45
2018-12-03T14:00:46.537Z,297.94
2018-12-03T14:01:46.289Z,298.15
2018-12-03T14:02:46.431Z,299.16
2018-12-03T14:03:46.258Z,297.44
2018-12-03T14:04:46.344Z,297.93
2018-12-03T14:05:46.335Z,297.95
2018-12-03T14:06:46.419Z,298.17
2018-12-03T14:07:46.220Z,298.29
2018-12-03T14:08:46.277Z,297.92
2018-12-03T14:09:46.216Z,298.05
2018-12-03T14:10:47.344Z,298.50
2018-12-03T14:11:46.177Z,298.26
2018-12-03T14:12:46.226Z,298.09
2018-12-03T14:13:46.185Z,298.27
2018-12-03T14:14:46.452Z,298.04
2018-12-03T14:15:46.499Z,298.08
2018-12-03T14:16:46.289Z,298.00
2018-12-03T14:17:46.109Z,297.77
2018-12-03T14:18:48.266Z,297.90
2018-12-03T14:19:46.158Z,298.48
2018-12-03T14:20:47.726Z,297.10
2018-12-03T14:21:46.129Z,298.72
2018-12-03T14:22:47.200Z,297.69
2018-12-03T14:23:46.064Z,297.48
2018-12-03T14:24:46.211Z,297.29
2018-12-03T14:25:46.035Z,297.10
2018-12-03T14:26:46.764Z,296.78
2018-12-03T14:27:46.218Z,297.25
2018-12-03T14:28:50.818Z,296.34
2018-12-03T14:29:46.057Z,296.81
2018-12-03T14:30:48.183Z,296.77
2018-12-03T14:31:46.730Z,297.38
2018-12-03T14:32:48.982Z,297.08
2018-12-03T14:33:46.234Z,296.88
2018-12-03T14:34:46.051Z,297.68
2018-12-03T14:35:46.077Z,297.35
2018-12-03T14:36:45.941Z,296.80
2018-12-03T14:37:47.036Z,297.32
2018-12-03T14:38:45.978Z,297.35
2018-12-03T14:39:47.081Z,297.61
2018-12-03T14:40:45.945Z,297.48
2018-12-03T14:41:46.111Z,298.07
2018-12-03T14:42:45.861Z,297.59
2018-12-03T14:43:46.305Z,297.48
2018-12-03T14:44:45.928Z,297.41
2018-12-03T14:45:47.060Z,297.19
2018-12-03T14:46:45.885Z,297.30
2018-12-03T14:47:45.946Z,297.36
2018-12-03T14:48:45.844Z,298.20
2018-12-03T14:49:45.848Z,297.16
2018-12-03T14:50:45.771Z,297.27
2018-12-03T14:51:51.735Z,297.35
2018-12-03T14:52:45.738Z,297.14
2018-12-03T14:53:45.915Z,297.41
2018-12-03T14:54:45.743Z,297.70
2018-12-03T14:55:45.817Z,297.52
2018-12-03T14:56:45.701Z,296.55
2018-12-03T14:57:45.844Z,297.78
2018-12-03T14:58:45.662Z,297.35
2018-12-03T14:59:45.855Z,297.52
2018-12-03T15:00:45.670Z,297.79
2018-12-03T15:01:45.808Z,297.39
2018-12-03T15:02:45.693Z,297.88
2018-12-03T15:03:45.820Z,297.13
2018-12-03T15:04:45.626Z,297.65
2018-12-03T15:05:45.642Z,297.55
2018-12-03T15:06:45.589Z,297.73
2018-12-03T15:07:45.701Z,297.87
2018-12-03T15:08:45.574Z,297.80
2018-12-03T15:09:45.714Z,298.74
2018-12-03T15:10:45.611Z,298.02
2018-12-03T15:11:45.634Z,298.12
2018-12-03T15:12:45.668Z,297.80
2018-12-03T15:13:45.805Z,297.20
2018-12-03T15:14:45.583Z,297.98
2018-12-03T15:15:45.550Z,297.38
2018-12-03T15:16:45.694Z,297.27
2018-12-03T15:17:45.567Z,297.28
2018-12-03T15:18:45.668Z,297.90
2018-12-03T15:19:45.484Z,297.86
2018-12-03T15:20:46.741Z,298.17
2018-12-03T15:21:45.426Z,297.75
2018-12-03T15:22:45.575Z,297.64
2018-12-03T15:23:45.443Z,297.76
2018-12-03T15:24:45.509Z,298.05
2018-12-03T15:25:46.178Z,297.52
2018-12-03T15:26:45.520Z,298.12
2018-12-03T15:27:45.374Z,297.80
2018-12-03T15:28:46.453Z,297.87
2018-12-03T15:29:46.041Z,298.02
2018-12-03T15:30:45.467Z,297.90
2018-12-03T15:31:45.681Z,297.33
2018-12-03T15:32:45.502Z,298.16
2018-12-03T15:33:45.320Z,297.47
2018-12-03T15:34:45.421Z,298.15
2018-12-03T15:35:45.291Z,297.32
2018-12-03T15:36:45.429Z,298.37
2018-12-03T15:37:45.267Z,298.30
2018-12-03T15:38:45.446Z,298.73
2018-12-03T15:39:45.253Z,298.66
2018-12-03T15:40:45.229Z,298.61
2018-12-03T15:41:45.329Z,297.82
2018-12-03T15:42:45.214Z,297.70
2018-12-03T15:43:45.300Z,298.73
2018-12-03T15:44:45.193Z,298.68
2018-12-03T15:45:45.336Z,298.91
2018-12-03T15:46:45.162Z,298.42
2018-12-03T15:47:45.247Z,298.36
2018-12-03T15:48:45.275Z,298.33
2018-12-03T15:49:45.306Z,297.78
2018-12-03T15:50:45.122Z,298.46
2018-12-03T15:51:45.296Z,298.84
2018-12-03T15:52:45.097Z,298.23
2018-12-03T15:53:46.250Z,298.42
2018-12-03T15:54:45.090Z,298.78
2018-12-03T15:55:45.242Z,298.98
2018-12-03T15:56:45.057Z,298.45
2018-12-03T15:57:47.365Z,299.05
2018-12-03T15:58:45.059Z,299.30
2018-12-03T15:59:45.182Z,298.18
2018-12-03T16:00:45.010Z,298.53
2018-12-03T16:01:45.118Z,298.92
2018-12-03T16:02:45.001Z,298.79
2018-12-03T16:03:45.125Z,298.93
2018-12-03T16:04:44.970Z,298.68
2018-12-03T16:05:45.062Z,298.90
2018-12-03T16:06:44.993Z,298.20
2018-12-03T16:07:45.087Z,298.59
2018-12-03T16:08:44.926Z,298.63
2018-12-03T16:09:45.004Z,298.38
2018-12-03T16:10:44.914Z,298.54
2018-12-03T16:11:45.019Z,298.34
2018-12-03T16:12:45.537Z,298.28
2018-12-03T16:13:45.051Z,298.17
2018-12-03T16:14:44.870Z,298.53
2018-12-03T16:15:45.986Z,297.92
2018-12-03T16:16:44.849Z,298.12
2018-12-03T16:17:44.983Z,298.40
2018-12-03T16:18:44.900Z,298.31
2018-12-03T16:19:45.060Z,298.50
2018-12-03T16:20:44.784Z,297.69
2018-12-03T16:21:44.962Z,298.44
2018-12-03T16:22:44.781Z,298.34
2018-12-03T16:23:44.852Z,298.16
2018-12-03T16:24:44.750Z,298.34
2018-12-03T16:25:44.885Z,298.51
2018-12-03T16:26:44.736Z,298.20
2018-12-03T16:27:44.796Z,298.97
2018-12-03T16:28:44.741Z,298.25
2018-12-03T16:29:44.833Z,297.80
2018-12-03T16:30:44.689Z,298.35
2018-12-03T16:31:44.850Z,298.05
2018-12-03T16:32:44.664Z,298.76
2018-12-03T16:33:44.775Z,297.83
2018-12-03T16:34:44.648Z,298.04
2018-12-03T16:35:45.009Z,297.61
2018-12-03T16:36:44.633Z,298.01
2018-12-03T16:37:45.743Z,297.63
2018-12-03T16:38:44.604Z,298.15
2018-12-03T16:39:44.736Z,297.33
2018-12-03T16:40:44.620Z,298.33
2018-12-03T16:41:44.761Z,298.02
2018-12-03T16:42:44.569Z,298.65
2018-12-03T16:43:44.684Z,298.15
2018-12-03T16:44:44.557Z,298.03
2018-12-03T16:45:44.603Z,297.63
2018-12-03T16:46:44.515Z,298.22
2018-12-03T16:47:44.637Z,298.42
2018-12-03T16:48:44.497Z,298.30
2018-12-03T16:49:44.654Z,297.95
2018-12-03T16:50:44.480Z,298.07
2018-12-03T16:51:44.568Z,297.61
2018-12-03T16:52:44.484Z,297.96
2018-12-03T16:53:44.614Z,297.65
2018-12-03T16:54:44.460Z,298.24
2018-12-03T16:55:44.507Z,298.13
2018-12-03T16:56:44.418Z,298.34
2018-12-03T16:57:44.540Z,298.11
2018-12-03T16:58:44.398Z,297.99
2018-12-03T16:59:44.575Z,298.09
2018-12-03T17:00:44.389Z,298.15
2018-12-03T17:01:44.493Z,298.60
2018-12-03T17:02:44.364Z,297.77
2018-12-03T17:03:44.432Z,297.72
2018-12-03T17:04:44.332Z,298.54
2018-12-03T17:05:44.438Z,298.14
2018-12-03T17:06:44.300Z,298.34
2018-12-03T17:07:44.366Z,297.91
2018-12-03T17:08:44.293Z,298.24
2018-12-03T17:09:44.382Z,297.43
2018-12-03T17:10:44.303Z,297.98
2018-12-03T17:11:44.417Z,298.44
2018-12-03T17:12:44.242Z,298.42
2018-12-03T17:13:44.330Z,297.94
2018-12-03T17:14:44.218Z,298.69
2018-12-03T17:15:44.389Z,298.44
2018-12-03T17:16:44.222Z,298.40
2018-12-03T17:17:44.383Z,297.94
2018-12-03T17:18:44.179Z,297.99
2018-12-03T17:19:44.295Z,297.84
2018-12-03T17:20:44.154Z,298.25
2018-12-03T17:21:44.341Z,298.75
2018-12-03T17:22:44.150Z,298.21
2018-12-03T17:23:44.328Z,298.11
2018-12-03T17:24:44.118Z,299.08
2018-12-03T17:25:44.158Z,298.14
2018-12-03T17:26:44.105Z,298.39
2018-12-03T17:27:44.194Z,298.36
2018-12-03T17:28:44.089Z,298.30
2018-12-03T17:29:44.213Z,298.32
2018-12-03T17:30:44.064Z,298.28
2018-12-03T17:31:44.138Z,297.55
2018-12-03T17:32:44.025Z,298.16
2018-12-03T17:33:44.152Z,298.25
2018-12-03T17:34:48.823Z,298.22
2018-12-03T17:35:45.193Z,298.71
2018-12-03T17:36:43.988Z,298.28
2018-12-03T17:37:44.095Z,298.02
2018-12-03T17:38:43.965Z,298.52
2018-12-03T17:39:44.119Z,298.19
2018-12-03T17:40:43.953Z,298.06
2018-12-03T17:41:44.165Z,298.32
2018-12-03T17:42:43.933Z,298.68
2018-12-03T17:43:44.082Z,298.30
2018-12-03T17:44:43.913Z,298.25
2018-12-03T17:45:43.989Z,298.58
2018-12-03T17:46:43.885Z,298.01
2018-12-03T17:47:43.917Z,298.09
2018-12-03T17:48:43.881Z,297.51
2018-12-03T17:49:43.934Z,297.98
2018-12-03T17:50:43.842Z,298.36
2018-12-03T17:51:43.957Z,298.40
2018-12-03T17:52:43.826Z,297.93
2018-12-03T17:53:43.880Z,297.36
2018-12-03T17:54:43.804Z,298.30
2018-12-03T17:55:43.906Z,297.63
2018-12-03T17:56:43.773Z,297.56
2018-12-03T17:57:43.944Z,297.84
2018-12-03T17:58:43.763Z,297.77
2018-12-03T17:59:43.849Z,298.41
2018-12-03T18:00:43.747Z,298.13
2018-12-03T18:01:43.871Z,297.59
2018-12-03T18:02:43.721Z,298.17
2018-12-03T18:03:43.908Z,298.11
2018-12-03T18:04:43.698Z,297.70
2018-12-03T18:05:43.712Z,298.17
2018-12-03T18:06:43.695Z,298.13
2018-12-03T18:07:43.742Z,297.52
2018-12-03T18:08:43.656Z,298.27
2018-12-03T18:09:43.763Z,297.01
2018-12-03T18:10:43.635Z,297.79
2018-12-03T18:11:44.578Z,298.16
2018-12-03T18:12:43.626Z,298.03
2018-12-03T18:13:43.715Z,297.93
2018-12-03T18:14:43.587Z,297.86
2018-12-03T18:15:43.731Z,298.05
2018-12-03T18:16:43.566Z,298.02
2018-12-03T18:17:43.655Z,297.51
2018-12-03T18:18:43.560Z,298.20
2018-12-03T18:19:43.675Z,298.42
2018-12-03T18:20:43.526Z,297.96
2018-12-03T18:21:43.729Z,298.11
2018-12-03T18:22:43.497Z,298.20
2018-12-03T18:23:43.632Z,298.08
2018-12-03T18:24:43.500Z,298.44
2018-12-03T18:25:43.652Z,298.22
2018-12-03T18:26:43.504Z,297.82
2018-12-03T18:27:43.573Z,298.16
2018-12-03T18:28:43.434Z,298.47
2018-12-03T18:29:43.487Z,297.64
2018-12-03T18:30:43.443Z,298.08
2018-12-03T18:31:43.520Z,298.58
2018-12-03T18:32:43.421Z,297.84
2018-12-03T18:33:43.538Z,297.84
2018-12-03T18:34:43.378Z,298.15
2018-12-03T18:35:43.457Z,297.68
2018-12-03T18:36:43.414Z,298.48
2018-12-03T18:37:43.477Z,298.42
2018-12-03T18:38:43.334Z,297.79
2018-12-03T18:39:43.520Z,298.15
2018-12-03T18:40:43.313Z,297.76
2018-12-03T18:41:43.458Z,298.37
2018-12-03T18:42:43.386Z,298.05
2018-12-03T18:43:43.464Z,297.56
2018-12-03T18:44:43.275Z,297.86
2018-12-03T18:45:43.475Z,297.41
2018-12-03T18:46:43.252Z,297.27
2018-12-03T18:47:43.399Z,298.15
2018-12-03T18:48:43.227Z,297.89
2018-12-03T18:49:43.308Z,298.93
2018-12-03T18:50:43.199Z,298.42
2018-12-03T18:51:43.238Z,297.90
2018-12-03T18:52:43.192Z,298.41
2018-12-03T18:53:43.259Z,298.69
2018-12-03T18:54:43.161Z,297.65
2018-12-03T18:55:43.277Z,298.31
2018-12-03T18:56:43.174Z,298.67
2018-12-03T18:57:43.206Z,298.19
2018-12-03T18:58:43.122Z,298.13
2018-12-03T18:59:43.219Z,298.47
2018-12-03T19:00:43.099Z,298.17
2018-12-03T19:01:43.279Z,297.94
2018-12-03T19:02:43.085Z,298.92
2018-12-03T19:03:43.184Z,298.35
2018-12-03T19:04:43.054Z,297.92
2018-12-03T19:05:43.192Z,298.01
2018-12-03T19:06:43.035Z,298.34
2018-12-03T19:07:43.242Z,297.78
2018-12-03T19:08:43.030Z,298.40
2018-12-03T19:09:43.035Z,297.95
2018-12-03T19:10:43.002Z,298.41
2018-12-03T19:11:43.062Z,298.90
2018-12-03T19:12:42.995Z,298.42
2018-12-03T19:13:42.949Z,297.69
2018-12-03T19:14:43.105Z,298.24
2018-12-03T19:15:42.942Z,298.77
2018-12-03T19:16:43.016Z,298.04
2018-12-03T19:17:42.923Z,298.05
2018-12-03T19:18:43.044Z,297.85
2018-12-03T19:19:42.893Z,298.14
2018-12-03T19:20:43.074Z,298.42
2018-12-03T19:21:42.903Z,298.45
2018-12-03T19:22:42.992Z,298.32
2018-12-03T19:23:42.859Z,298.12
2018-12-03T19:24:43.019Z,298.26
2018-12-03T19:25:43.016Z,298.17
2018-12-03T19:26:42.820Z,297.93
2018-12-03T19:27:42.946Z,298.33
2018-12-03T19:28:42.795Z,297.96
2018-12-03T19:29:42.963Z,298.79
2018-12-03T19:30:42.816Z,298.08
2018-12-03T19:31:42.894Z,298.73
2018-12-03T19:32:42.764Z,298.65
2018-12-03T19:33:42.809Z,298.54
2018-12-03T19:34:42.755Z,298.49
2018-12-03T19:35:42.837Z,298.27
2018-12-03T19:36:42.741Z,298.59
2018-12-03T19:37:42.738Z,297.84
2018-12-03T19:38:42.867Z,298.51
2018-12-03T19:39:42.708Z,298.45
2018-12-03T19:40:42.787Z,298.40
2018-12-03T19:41:42.689Z,298.47
2018-12-03T19:42:42.854Z,298.19
2018-12-03T19:43:42.710Z,297.86
2018-12-03T19:44:42.859Z,297.49
2018-12-03T19:45:42.622Z,299.19
2018-12-03T19:46:42.798Z,298.29
2018-12-03T19:47:42.597Z,298.09
2018-12-03T19:48:42.787Z,298.70
2018-12-03T19:49:42.608Z,298.08
2018-12-03T19:50:42.711Z,298.77
2018-12-03T19:51:42.565Z,298.52
2018-12-03T19:52:42.638Z,298.17
2018-12-03T19:53:42.552Z,297.52
2018-12-03T19:54:42.646Z,298.95
2018-12-03T19:55:42.525Z,298.72
2018-12-03T19:56:42.593Z,298.89
2018-12-03T19:57:42.494Z,298.51
2018-12-03T19:58:42.592Z,298.70
2018-12-03T19:59:42.495Z,297.69
2018-12-03T20:00:42.617Z,298.37
2018-12-03T20:01:42.457Z,297.82
2018-12-03T20:02:42.557Z,298.49
2018-12-03T20:03:42.434Z,297.48
2018-12-03T20:04:42.564Z,298.92
2018-12-03T20:05:42.406Z,298.44
2018-12-03T20:06:42.633Z,297.93
2018-12-03T20:07:42.390Z,298.46
2018-12-03T20:08:42.517Z,297.93
2018-12-03T20:09:42.389Z,298.28
2018-12-03T20:10:42.875Z,297.64
2018-12-03T20:11:42.351Z,298.31
2018-12-03T20:12:42.459Z,298.25
2018-12-03T20:13:42.353Z,298.75
2018-12-03T20:14:42.377Z,298.95
2018-12-03T20:15:42.314Z,298.36
2018-12-03T20:16:42.396Z,297.93
2018-12-03T20:17:43.588Z,298.06
2018-12-03T20:18:42.420Z,298.12
2018-12-03T20:19:42.285Z,298.21
2018-12-03T20:20:42.333Z,298.14
2018-12-03T20:21:42.241Z,298.06
2018-12-03T20:22:42.375Z,298.34
2018-12-03T20:23:42.213Z,298.42
2018-12-03T20:24:44.337Z,298.21
2018-12-03T20:25:42.225Z,297.37
2018-12-03T20:26:42.315Z,298.82
2018-12-03T20:27:42.214Z,298.40
2018-12-03T20:28:42.343Z,299.00
2018-12-03T20:29:42.149Z,297.99
2018-12-03T20:30:42.259Z,298.86
2018-12-03T20:31:42.147Z,298.19
2018-12-03T20:32:42.177Z,298.08
2018-12-03T20:33:42.107Z,297.80
2018-12-03T20:34:42.201Z,297.95
2018-12-03T20:35:42.110Z,298.08
2018-12-03T20:36:42.125Z,298.59
2018-12-03T20:37:42.064Z,298.28
2018-12-03T20:38:42.142Z,297.96
2018-12-03T20:39:42.047Z,298.06
2018-12-03T20:40:42.178Z,298.01
2018-12-03T20:41:42.031Z,297.94
2018-12-03T20:42:42.209Z,298.39
2018-12-03T20:43:42.004Z,298.53
2018-12-03T20:44:42.160Z,298.66
2018-12-03T20:45:41.977Z,298.00
2018-12-03T20:46:42.146Z,298.73
2018-12-03T20:47:41.964Z,298.79
2018-12-03T20:48:42.105Z,297.95
2018-12-03T20:49:41.945Z,298.45
2018-12-03T20:50:43.650Z,297.90
2018-12-03T20:51:41.917Z,298.28
2018-12-03T20:52:47.198Z,298.09
2018-12-03T20:53:42.911Z,298.49
2018-12-03T20:54:41.936Z,297.89
2018-12-03T20:55:41.877Z,298.49
2018-12-03T20:56:41.951Z,297.97
2018-12-03T20:57:41.847Z,298.08
2018-12-03T20:58:41.973Z,298.41
2018-12-03T20:59:41.839Z,298.48
2018-12-03T21:00:41.903Z,298.96